sensor_id;sensor_type;location;lat;lon;timestamp;P1;durP1;ratioP1;P2;durP2;ratioP2
68870;SDS011;55906;52.278;6.808;2022-12-18T00:02:03;50.00;;;21.63;;
68870;SDS011;55906;52.278;6.808;2022-12-18T00:04:30;52.22;;;23.08;;
68870;SDS011;55906;52.278;6.808;2022-12-18T00:06:57;48.10;;;22.60;;
68870;SDS011;55906;52.278;6.808;2022-12-18T00:09:23;61.60;;;24.30;;
68870;SDS011;55906;52.278;6.808;2022-12-18T00:11:50;48.13;;;21.37;;
68870;SDS011;55906;52.278;6.808;2022-12-18T00:14:17;50.20;;;22.63;;
68870;SDS011;55906;52.278;6.808;2022-12-18T00:16:45;51.28;;;22.23;;
68870;SDS011;55906;52.278;6.808;2022-12-18T00:19:12;72.77;;;30.07;;
68870;SDS011;55906;52.278;6.808;2022-12-18T00:21:40;62.53;;;24.83;;
68870;SDS011;55906;52.278;6.808;2022-12-18T00:24:07;66.60;;;27.48;;
68870;SDS011;55906;52.278;6.808;2022-12-18T00:26:35;62.95;;;24.35;;
68870;SDS011;55906;52.278;6.808;2022-12-18T00:29:03;67.97;;;27.85;;
68870;SDS011;55906;52.278;6.808;2022-12-18T00:31:31;52.53;;;23.50;;
68870;SDS011;55906;52.278;6.808;2022-12-18T00:33:59;50.47;;;22.02;;
68870;SDS011;55906;52.278;6.808;2022-12-18T00:36:27;51.27;;;23.23;;
68870;SDS011;55906;52.278;6.808;2022-12-18T00:38:55;57.47;;;23.98;;
68870;SDS011;55906;52.278;6.808;2022-12-18T00:41:23;51.65;;;21.88;;
68870;SDS011;55906;52.278;6.808;2022-12-18T00:44:09;41.93;;;20.47;;
68870;SDS011;55906;52.278;6.808;2022-12-18T00:46:37;47.83;;;18.63;;
68870;SDS011;55906;52.278;6.808;2022-12-18T00:49:05;41.33;;;17.30;;
68870;SDS011;55906;52.278;6.808;2022-12-18T00:51:32;40.17;;;18.48;;
68870;SDS011;55906;52.278;6.808;2022-12-18T00:53:59;46.05;;;19.08;;
68870;SDS011;55906;52.278;6.808;2022-12-18T00:56:25;45.97;;;20.27;;
68870;SDS011;55906;52.278;6.808;2022-12-18T00:58:52;45.92;;;18.25;;
68870;SDS011;55906;52.278;6.808;2022-12-18T01:01:19;42.77;;;17.87;;
68870;SDS011;55906;52.278;6.808;2022-12-18T01:03:46;34.42;;;16.88;;
68870;SDS011;55906;52.278;6.808;2022-12-18T01:06:14;42.53;;;17.55;;
68870;SDS011;55906;52.278;6.808;2022-12-18T01:08:42;39.13;;;17.20;;
68870;SDS011;55906;52.278;6.808;2022-12-18T01:11:09;38.20;;;17.83;;
68870;SDS011;55906;52.278;6.808;2022-12-18T01:13:37;40.03;;;17.27;;
68870;SDS011;55906;52.278;6.808;2022-12-18T01:16:04;45.70;;;19.27;;
68870;SDS011;55906;52.278;6.808;2022-12-18T01:18:31;50.03;;;19.60;;
68870;SDS011;55906;52.278;6.808;2022-12-18T01:20:58;43.83;;;20.88;;
68870;SDS011;55906;52.278;6.808;2022-12-18T01:23:26;42.55;;;18.23;;
68870;SDS011;55906;52.278;6.808;2022-12-18T01:25:53;47.77;;;21.73;;
68870;SDS011;55906;52.278;6.808;2022-12-18T01:28:19;49.88;;;20.38;;
68870;SDS011;55906;52.278;6.808;2022-12-18T01:30:46;46.35;;;21.88;;
68870;SDS011;55906;52.278;6.808;2022-12-18T01:33:12;51.00;;;20.93;;
68870;SDS011;55906;52.278;6.808;2022-12-18T01:35:40;43.08;;;20.60;;
68870;SDS011;55906;52.278;6.808;2022-12-18T01:38:08;49.25;;;21.65;;
68870;SDS011;55906;52.278;6.808;2022-12-18T01:40:36;41.13;;;18.10;;
68870;SDS011;55906;52.278;6.808;2022-12-18T01:43:03;38.22;;;18.13;;
68870;SDS011;55906;52.278;6.808;2022-12-18T01:45:30;44.67;;;19.00;;
68870;SDS011;55906;52.278;6.808;2022-12-18T01:47:57;44.17;;;19.63;;
68870;SDS011;55906;52.278;6.808;2022-12-18T01:50:28;35.53;;;16.90;;
68870;SDS011;55906;52.278;6.808;2022-12-18T01:53:00;38.22;;;17.85;;
68870;SDS011;55906;52.278;6.808;2022-12-18T01:55:32;42.53;;;19.55;;
68870;SDS011;55906;52.278;6.808;2022-12-18T01:58:05;31.93;;;16.90;;
68870;SDS011;55906;52.278;6.808;2022-12-18T02:00:31;35.00;;;16.08;;
68870;SDS011;55906;52.278;6.808;2022-12-18T02:02:58;35.05;;;16.75;;
68870;SDS011;55906;52.278;6.808;2022-12-18T02:05:28;34.20;;;16.25;;
68870;SDS011;55906;52.278;6.808;2022-12-18T02:08:03;33.03;;;15.13;;
68870;SDS011;55906;52.278;6.808;2022-12-18T02:10:39;32.28;;;14.95;;
68870;SDS011;55906;52.278;6.808;2022-12-18T02:13:14;33.25;;;15.50;;
68870;SDS011;55906;52.278;6.808;2022-12-18T02:15:51;29.00;;;14.77;;
68870;SDS011;55906;52.278;6.808;2022-12-18T02:18:27;29.92;;;14.98;;
68870;SDS011;55906;52.278;6.808;2022-12-18T02:20:59;36.78;;;15.20;;
68870;SDS011;55906;52.278;6.808;2022-12-18T02:23:39;26.10;;;14.17;;
68870;SDS011;55906;52.278;6.808;2022-12-18T02:26:16;29.30;;;14.25;;
68870;SDS011;55906;52.278;6.808;2022-12-18T02:28:48;28.35;;;13.32;;
68870;SDS011;55906;52.278;6.808;2022-12-18T02:31:19;29.92;;;13.65;;
68870;SDS011;55906;52.278;6.808;2022-12-18T02:33:50;27.13;;;14.75;;
68870;SDS011;55906;52.278;6.808;2022-12-18T02:36:19;29.67;;;13.45;;
68870;SDS011;55906;52.278;6.808;2022-12-18T02:38:47;34.55;;;16.05;;
68870;SDS011;55906;52.278;6.808;2022-12-18T02:41:17;31.43;;;14.57;;
68870;SDS011;55906;52.278;6.808;2022-12-18T02:43:47;38.10;;;15.88;;
68870;SDS011;55906;52.278;6.808;2022-12-18T02:46:23;27.60;;;14.98;;
68870;SDS011;55906;52.278;6.808;2022-12-18T02:48:53;32.17;;;14.93;;
68870;SDS011;55906;52.278;6.808;2022-12-18T02:51:29;27.60;;;13.68;;
68870;SDS011;55906;52.278;6.808;2022-12-18T02:54:02;29.55;;;14.38;;
68870;SDS011;55906;52.278;6.808;2022-12-18T02:56:37;26.15;;;14.02;;
68870;SDS011;55906;52.278;6.808;2022-12-18T02:59:12;25.38;;;13.27;;
68870;SDS011;55906;52.278;6.808;2022-12-18T03:01:46;29.15;;;14.05;;
68870;SDS011;55906;52.278;6.808;2022-12-18T03:04:18;26.65;;;13.93;;
68870;SDS011;55906;52.278;6.808;2022-12-18T03:06:53;23.17;;;11.83;;
68870;SDS011;55906;52.278;6.808;2022-12-18T03:09:23;24.67;;;13.68;;
68870;SDS011;55906;52.278;6.808;2022-12-18T03:11:58;23.98;;;12.10;;
68870;SDS011;55906;52.278;6.808;2022-12-18T03:14:49;21.87;;;12.60;;
68870;SDS011;55906;52.278;6.808;2022-12-18T03:17:20;23.80;;;14.32;;
68870;SDS011;55906;52.278;6.808;2022-12-18T03:19:51;23.00;;;12.07;;
68870;SDS011;55906;52.278;6.808;2022-12-18T03:22:19;22.48;;;12.43;;
68870;SDS011;55906;52.278;6.808;2022-12-18T03:24:48;23.13;;;11.95;;
68870;SDS011;55906;52.278;6.808;2022-12-18T03:27:18;19.88;;;11.73;;
68870;SDS011;55906;52.278;6.808;2022-12-18T03:29:48;21.50;;;11.68;;
68870;SDS011;55906;52.278;6.808;2022-12-18T03:32:20;24.47;;;13.10;;
68870;SDS011;55906;52.278;6.808;2022-12-18T03:34:52;26.88;;;14.98;;
68870;SDS011;55906;52.278;6.808;2022-12-18T03:37:21;31.05;;;15.32;;
68870;SDS011;55906;52.278;6.808;2022-12-18T03:39:48;29.77;;;15.77;;
68870;SDS011;55906;52.278;6.808;2022-12-18T03:42:15;28.33;;;14.63;;
68870;SDS011;55906;52.278;6.808;2022-12-18T03:44:53;25.35;;;14.10;;
68870;SDS011;55906;52.278;6.808;2022-12-18T03:47:25;24.67;;;13.80;;
68870;SDS011;55906;52.278;6.808;2022-12-18T03:49:56;29.05;;;14.82;;
68870;SDS011;55906;52.278;6.808;2022-12-18T03:52:26;30.88;;;15.80;;
68870;SDS011;55906;52.278;6.808;2022-12-18T03:54:58;27.48;;;13.23;;
68870;SDS011;55906;52.278;6.808;2022-12-18T03:57:28;26.73;;;12.77;;
68870;SDS011;55906;52.278;6.808;2022-12-18T04:00:00;27.13;;;14.82;;
68870;SDS011;55906;52.278;6.808;2022-12-18T04:02:29;23.63;;;13.45;;
68870;SDS011;55906;52.278;6.808;2022-12-18T04:04:59;26.33;;;14.53;;
68870;SDS011;55906;52.278;6.808;2022-12-18T04:07:30;28.90;;;15.00;;
68870;SDS011;55906;52.278;6.808;2022-12-18T04:09:58;25.00;;;14.63;;
68870;SDS011;55906;52.278;6.808;2022-12-18T04:12:29;27.20;;;13.73;;
68870;SDS011;55906;52.278;6.808;2022-12-18T04:14:55;23.13;;;13.38;;
68870;SDS011;55906;52.278;6.808;2022-12-18T04:17:22;26.05;;;13.57;;
68870;SDS011;55906;52.278;6.808;2022-12-18T04:19:49;28.35;;;14.18;;
68870;SDS011;55906;52.278;6.808;2022-12-18T04:22:16;21.30;;;12.00;;
68870;SDS011;55906;52.278;6.808;2022-12-18T04:24:42;23.13;;;13.43;;
68870;SDS011;55906;52.278;6.808;2022-12-18T04:27:09;25.13;;;13.63;;
68870;SDS011;55906;52.278;6.808;2022-12-18T04:29:37;27.83;;;15.00;;
68870;SDS011;55906;52.278;6.808;2022-12-18T04:32:04;20.40;;;12.18;;
68870;SDS011;55906;52.278;6.808;2022-12-18T04:34:30;25.30;;;13.55;;
68870;SDS011;55906;52.278;6.808;2022-12-18T04:36:57;22.33;;;11.82;;
68870;SDS011;55906;52.278;6.808;2022-12-18T04:39:24;23.45;;;12.25;;
68870;SDS011;55906;52.278;6.808;2022-12-18T04:41:50;19.85;;;11.48;;
68870;SDS011;55906;52.278;6.808;2022-12-18T04:44:17;23.98;;;12.02;;
68870;SDS011;55906;52.278;6.808;2022-12-18T04:46:45;23.73;;;12.23;;
68870;SDS011;55906;52.278;6.808;2022-12-18T04:49:12;22.80;;;12.70;;
68870;SDS011;55906;52.278;6.808;2022-12-18T04:51:38;22.30;;;12.85;;
68870;SDS011;55906;52.278;6.808;2022-12-18T04:54:05;19.77;;;10.67;;
68870;SDS011;55906;52.278;6.808;2022-12-18T04:56:31;20.00;;;11.15;;
68870;SDS011;55906;52.278;6.808;2022-12-18T04:58:58;20.25;;;11.02;;
68870;SDS011;55906;52.278;6.808;2022-12-18T05:01:25;19.83;;;11.10;;
68870;SDS011;55906;52.278;6.808;2022-12-18T05:03:53;19.25;;;12.00;;
68870;SDS011;55906;52.278;6.808;2022-12-18T05:06:19;16.23;;;10.02;;
68870;SDS011;55906;52.278;6.808;2022-12-18T05:08:46;19.00;;;9.75;;
68870;SDS011;55906;52.278;6.808;2022-12-18T05:11:13;19.83;;;11.43;;
68870;SDS011;55906;52.278;6.808;2022-12-18T05:13:41;22.05;;;12.10;;
68870;SDS011;55906;52.278;6.808;2022-12-18T05:16:08;20.52;;;10.57;;
68870;SDS011;55906;52.278;6.808;2022-12-18T05:18:34;24.13;;;12.43;;
68870;SDS011;55906;52.278;6.808;2022-12-18T05:21:03;23.80;;;12.05;;
68870;SDS011;55906;52.278;6.808;2022-12-18T05:23:30;23.58;;;13.05;;
68870;SDS011;55906;52.278;6.808;2022-12-18T05:25:57;21.73;;;12.45;;
68870;SDS011;55906;52.278;6.808;2022-12-18T05:28:26;20.35;;;10.50;;
68870;SDS011;55906;52.278;6.808;2022-12-18T05:30:55;20.02;;;11.73;;
68870;SDS011;55906;52.278;6.808;2022-12-18T05:33:24;21.23;;;11.52;;
68870;SDS011;55906;52.278;6.808;2022-12-18T05:35:52;22.90;;;13.07;;
68870;SDS011;55906;52.278;6.808;2022-12-18T05:38:21;20.38;;;11.50;;
68870;SDS011;55906;52.278;6.808;2022-12-18T05:40:49;19.88;;;10.90;;
68870;SDS011;55906;52.278;6.808;2022-12-18T05:43:16;20.03;;;10.17;;
68870;SDS011;55906;52.278;6.808;2022-12-18T05:45:44;18.92;;;10.80;;
68870;SDS011;55906;52.278;6.808;2022-12-18T05:48:11;17.92;;;11.07;;
68870;SDS011;55906;52.278;6.808;2022-12-18T05:50:37;19.70;;;10.55;;
68870;SDS011;55906;52.278;6.808;2022-12-18T05:53:05;22.20;;;10.23;;
68870;SDS011;55906;52.278;6.808;2022-12-18T05:55:34;23.33;;;12.38;;
68870;SDS011;55906;52.278;6.808;2022-12-18T05:58:01;20.00;;;10.82;;
68870;SDS011;55906;52.278;6.808;2022-12-18T06:00:28;18.90;;;10.53;;
68870;SDS011;55906;52.278;6.808;2022-12-18T06:02:55;17.52;;;10.65;;
68870;SDS011;55906;52.278;6.808;2022-12-18T06:05:22;16.25;;;10.32;;
68870;SDS011;55906;52.278;6.808;2022-12-18T06:07:49;20.47;;;11.10;;
68870;SDS011;55906;52.278;6.808;2022-12-18T06:10:15;16.92;;;10.35;;
68870;SDS011;55906;52.278;6.808;2022-12-18T06:12:43;16.52;;;9.68;;
68870;SDS011;55906;52.278;6.808;2022-12-18T06:15:10;14.80;;;9.03;;
68870;SDS011;55906;52.278;6.808;2022-12-18T06:17:37;14.88;;;9.23;;
68870;SDS011;55906;52.278;6.808;2022-12-18T06:20:04;15.93;;;9.52;;
68870;SDS011;55906;52.278;6.808;2022-12-18T06:22:32;16.77;;;9.10;;
68870;SDS011;55906;52.278;6.808;2022-12-18T06:24:58;17.70;;;10.57;;
68870;SDS011;55906;52.278;6.808;2022-12-18T06:27:25;15.13;;;9.52;;
68870;SDS011;55906;52.278;6.808;2022-12-18T06:29:53;18.80;;;10.40;;
68870;SDS011;55906;52.278;6.808;2022-12-18T06:32:20;16.90;;;10.05;;
68870;SDS011;55906;52.278;6.808;2022-12-18T06:34:46;16.65;;;9.40;;
68870;SDS011;55906;52.278;6.808;2022-12-18T06:37:13;15.27;;;9.23;;
68870;SDS011;55906;52.278;6.808;2022-12-18T06:39:39;17.15;;;10.07;;
68870;SDS011;55906;52.278;6.808;2022-12-18T06:42:06;16.92;;;9.75;;
68870;SDS011;55906;52.278;6.808;2022-12-18T06:44:32;14.68;;;9.52;;
68870;SDS011;55906;52.278;6.808;2022-12-18T06:47:00;14.70;;;9.60;;
68870;SDS011;55906;52.278;6.808;2022-12-18T06:49:27;20.00;;;10.93;;
68870;SDS011;55906;52.278;6.808;2022-12-18T06:51:54;18.55;;;10.32;;
68870;SDS011;55906;52.278;6.808;2022-12-18T06:54:20;18.90;;;10.40;;
68870;SDS011;55906;52.278;6.808;2022-12-18T06:56:47;18.02;;;10.43;;
68870;SDS011;55906;52.278;6.808;2022-12-18T06:59:13;15.70;;;9.38;;
68870;SDS011;55906;52.278;6.808;2022-12-18T07:01:40;18.90;;;10.23;;
68870;SDS011;55906;52.278;6.808;2022-12-18T07:04:08;16.50;;;10.18;;
68870;SDS011;55906;52.278;6.808;2022-12-18T07:06:35;17.35;;;9.65;;
68870;SDS011;55906;52.278;6.808;2022-12-18T07:09:01;15.98;;;10.38;;
68870;SDS011;55906;52.278;6.808;2022-12-18T07:11:28;18.07;;;10.17;;
68870;SDS011;55906;52.278;6.808;2022-12-18T07:13:54;16.02;;;10.30;;
68870;SDS011;55906;52.278;6.808;2022-12-18T07:16:21;15.07;;;9.60;;
68870;SDS011;55906;52.278;6.808;2022-12-18T07:18:48;16.27;;;9.83;;
68870;SDS011;55906;52.278;6.808;2022-12-18T07:21:16;15.05;;;10.30;;
68870;SDS011;55906;52.278;6.808;2022-12-18T07:23:44;18.25;;;11.18;;
68870;SDS011;55906;52.278;6.808;2022-12-18T07:26:13;14.32;;;10.35;;
68870;SDS011;55906;52.278;6.808;2022-12-18T07:28:41;20.70;;;12.68;;
68870;SDS011;55906;52.278;6.808;2022-12-18T07:31:09;17.77;;;11.02;;
68870;SDS011;55906;52.278;6.808;2022-12-18T07:33:37;16.20;;;10.30;;
68870;SDS011;55906;52.278;6.808;2022-12-18T07:36:04;19.07;;;11.33;;
68870;SDS011;55906;52.278;6.808;2022-12-18T07:38:34;15.52;;;10.65;;
68870;SDS011;55906;52.278;6.808;2022-12-18T07:41:02;16.75;;;9.93;;
68870;SDS011;55906;52.278;6.808;2022-12-18T07:43:29;17.40;;;10.73;;
68870;SDS011;55906;52.278;6.808;2022-12-18T07:45:56;23.08;;;14.68;;
68870;SDS011;55906;52.278;6.808;2022-12-18T07:48:22;20.10;;;11.88;;
68870;SDS011;55906;52.278;6.808;2022-12-18T07:50:49;19.63;;;11.50;;
68870;SDS011;55906;52.278;6.808;2022-12-18T07:53:15;19.67;;;11.68;;
68870;SDS011;55906;52.278;6.808;2022-12-18T07:55:43;19.45;;;12.27;;
68870;SDS011;55906;52.278;6.808;2022-12-18T07:58:10;20.05;;;12.82;;
68870;SDS011;55906;52.278;6.808;2022-12-18T08:00:37;20.80;;;11.37;;
68870;SDS011;55906;52.278;6.808;2022-12-18T08:03:04;18.60;;;11.82;;
68870;SDS011;55906;52.278;6.808;2022-12-18T08:05:31;25.02;;;14.90;;
68870;SDS011;55906;52.278;6.808;2022-12-18T08:07:57;20.20;;;11.97;;
68870;SDS011;55906;52.278;6.808;2022-12-18T08:10:24;24.55;;;13.95;;
68870;SDS011;55906;52.278;6.808;2022-12-18T08:12:52;30.42;;;16.38;;
68870;SDS011;55906;52.278;6.808;2022-12-18T08:15:19;25.13;;;16.50;;
68870;SDS011;55906;52.278;6.808;2022-12-18T08:17:45;29.13;;;15.98;;
68870;SDS011;55906;52.278;6.808;2022-12-18T08:20:12;33.00;;;18.40;;
68870;SDS011;55906;52.278;6.808;2022-12-18T08:22:40;21.52;;;14.77;;
68870;SDS011;55906;52.278;6.808;2022-12-18T08:25:10;22.50;;;12.97;;
68870;SDS011;55906;52.278;6.808;2022-12-18T08:27:36;20.83;;;14.00;;
68870;SDS011;55906;52.278;6.808;2022-12-18T08:30:05;22.50;;;14.18;;
68870;SDS011;55906;52.278;6.808;2022-12-18T08:32:33;20.23;;;13.83;;
68870;SDS011;55906;52.278;6.808;2022-12-18T08:35:00;19.67;;;13.07;;
68870;SDS011;55906;52.278;6.808;2022-12-18T08:37:26;21.10;;;13.07;;
68870;SDS011;55906;52.278;6.808;2022-12-18T08:39:53;19.83;;;11.70;;
68870;SDS011;55906;52.278;6.808;2022-12-18T08:42:20;17.20;;;11.25;;
68870;SDS011;55906;52.278;6.808;2022-12-18T08:45:06;17.42;;;10.63;;
68870;SDS011;55906;52.278;6.808;2022-12-18T08:47:33;18.98;;;12.38;;
68870;SDS011;55906;52.278;6.808;2022-12-18T08:50:00;15.93;;;10.60;;
68870;SDS011;55906;52.278;6.808;2022-12-18T08:52:27;16.98;;;11.65;;
68870;SDS011;55906;52.278;6.808;2022-12-18T08:54:54;17.58;;;11.13;;
68870;SDS011;55906;52.278;6.808;2022-12-18T08:57:20;18.33;;;11.40;;
68870;SDS011;55906;52.278;6.808;2022-12-18T08:59:47;24.48;;;14.55;;
68870;SDS011;55906;52.278;6.808;2022-12-18T09:02:15;19.02;;;12.30;;
68870;SDS011;55906;52.278;6.808;2022-12-18T09:04:42;20.27;;;13.48;;
68870;SDS011;55906;52.278;6.808;2022-12-18T09:07:08;27.30;;;16.77;;
68870;SDS011;55906;52.278;6.808;2022-12-18T09:09:35;21.30;;;12.98;;
68870;SDS011;55906;52.278;6.808;2022-12-18T09:12:02;24.73;;;15.50;;
68870;SDS011;55906;52.278;6.808;2022-12-18T09:14:29;25.93;;;15.90;;
68870;SDS011;55906;52.278;6.808;2022-12-18T09:16:55;21.80;;;14.48;;
68870;SDS011;55906;52.278;6.808;2022-12-18T09:19:23;22.92;;;13.95;;
68870;SDS011;55906;52.278;6.808;2022-12-18T09:21:50;34.53;;;18.17;;
68870;SDS011;55906;52.278;6.808;2022-12-18T09:24:16;26.60;;;16.45;;
68870;SDS011;55906;52.278;6.808;2022-12-18T09:26:43;23.95;;;15.68;;
68870;SDS011;55906;52.278;6.808;2022-12-18T09:29:10;26.38;;;16.20;;
68870;SDS011;55906;52.278;6.808;2022-12-18T09:31:36;19.40;;;13.05;;
68870;SDS011;55906;52.278;6.808;2022-12-18T09:34:04;19.10;;;12.57;;
68870;SDS011;55906;52.278;6.808;2022-12-18T09:36:32;20.45;;;13.25;;
68870;SDS011;55906;52.278;6.808;2022-12-18T09:38:59;16.77;;;11.77;;
68870;SDS011;55906;52.278;6.808;2022-12-18T09:41:32;17.75;;;11.10;;
68870;SDS011;55906;52.278;6.808;2022-12-18T09:44:09;15.93;;;10.90;;
68870;SDS011;55906;52.278;6.808;2022-12-18T09:46:43;15.20;;;10.53;;
68870;SDS011;55906;52.278;6.808;2022-12-18T09:49:14;16.58;;;10.27;;
68870;SDS011;55906;52.278;6.808;2022-12-18T09:51:47;16.67;;;10.20;;
68870;SDS011;55906;52.278;6.808;2022-12-18T09:54:18;14.30;;;9.68;;
68870;SDS011;55906;52.278;6.808;2022-12-18T09:56:49;12.83;;;9.67;;
68870;SDS011;55906;52.278;6.808;2022-12-18T09:59:18;16.50;;;9.48;;
68870;SDS011;55906;52.278;6.808;2022-12-18T10:01:49;13.50;;;9.15;;
68870;SDS011;55906;52.278;6.808;2022-12-18T10:04:16;25.00;;;15.43;;
68870;SDS011;55906;52.278;6.808;2022-12-18T10:06:44;22.20;;;14.27;;
68870;SDS011;55906;52.278;6.808;2022-12-18T10:09:20;19.15;;;12.60;;
68870;SDS011;55906;52.278;6.808;2022-12-18T10:11:55;16.65;;;10.80;;
68870;SDS011;55906;52.278;6.808;2022-12-18T10:14:30;14.98;;;10.50;;
68870;SDS011;55906;52.278;6.808;2022-12-18T10:17:03;15.87;;;10.47;;
68870;SDS011;55906;52.278;6.808;2022-12-18T10:19:49;15.65;;;9.52;;
68870;SDS011;55906;52.278;6.808;2022-12-18T10:22:22;16.08;;;10.23;;
68870;SDS011;55906;52.278;6.808;2022-12-18T10:24:58;15.10;;;9.35;;
68870;SDS011;55906;52.278;6.808;2022-12-18T10:27:30;14.18;;;9.45;;
68870;SDS011;55906;52.278;6.808;2022-12-18T10:29:57;16.13;;;9.90;;
68870;SDS011;55906;52.278;6.808;2022-12-18T10:32:25;13.07;;;9.18;;
68870;SDS011;55906;52.278;6.808;2022-12-18T10:34:53;15.40;;;9.13;;
68870;SDS011;55906;52.278;6.808;2022-12-18T10:37:23;15.55;;;10.32;;
68870;SDS011;55906;52.278;6.808;2022-12-18T10:40:06;14.55;;;10.30;;
68870;SDS011;55906;52.278;6.808;2022-12-18T10:42:38;15.30;;;9.97;;
68870;SDS011;55906;52.278;6.808;2022-12-18T10:45:09;13.68;;;9.93;;
68870;SDS011;55906;52.278;6.808;2022-12-18T10:47:41;14.68;;;9.68;;
68870;SDS011;55906;52.278;6.808;2022-12-18T10:50:16;22.92;;;11.65;;
68870;SDS011;55906;52.278;6.808;2022-12-18T10:52:53;14.88;;;10.40;;
68870;SDS011;55906;52.278;6.808;2022-12-18T10:55:21;14.05;;;10.52;;
68870;SDS011;55906;52.278;6.808;2022-12-18T10:57:48;14.77;;;10.00;;
68870;SDS011;55906;52.278;6.808;2022-12-18T11:00:22;15.40;;;10.47;;
68870;SDS011;55906;52.278;6.808;2022-12-18T11:02:51;15.07;;;9.98;;
68870;SDS011;55906;52.278;6.808;2022-12-18T11:05:25;15.55;;;9.95;;
68870;SDS011;55906;52.278;6.808;2022-12-18T11:07:55;14.93;;;10.17;;
68870;SDS011;55906;52.278;6.808;2022-12-18T11:10:25;15.77;;;9.82;;
68870;SDS011;55906;52.278;6.808;2022-12-18T11:12:55;15.30;;;10.07;;
68870;SDS011;55906;52.278;6.808;2022-12-18T11:15:23;14.27;;;9.55;;
68870;SDS011;55906;52.278;6.808;2022-12-18T11:17:54;13.98;;;9.55;;
68870;SDS011;55906;52.278;6.808;2022-12-18T11:20:24;16.85;;;9.93;;
68870;SDS011;55906;52.278;6.808;2022-12-18T11:22:58;14.15;;;9.45;;
68870;SDS011;55906;52.278;6.808;2022-12-18T11:25:27;15.43;;;9.07;;
68870;SDS011;55906;52.278;6.808;2022-12-18T11:27:54;12.85;;;9.15;;
68870;SDS011;55906;52.278;6.808;2022-12-18T11:30:23;14.27;;;9.45;;
68870;SDS011;55906;52.278;6.808;2022-12-18T11:32:53;14.93;;;11.00;;
68870;SDS011;55906;52.278;6.808;2022-12-18T11:35:25;20.00;;;11.82;;
68870;SDS011;55906;52.278;6.808;2022-12-18T11:38:10;24.10;;;13.07;;
68870;SDS011;55906;52.278;6.808;2022-12-18T11:40:44;18.70;;;11.88;;
68870;SDS011;55906;52.278;6.808;2022-12-18T11:43:16;20.10;;;11.45;;
68870;SDS011;55906;52.278;6.808;2022-12-18T11:45:49;18.10;;;10.95;;
68870;SDS011;55906;52.278;6.808;2022-12-18T11:48:21;18.60;;;9.98;;
68870;SDS011;55906;52.278;6.808;2022-12-18T11:50:51;18.73;;;11.67;;
68870;SDS011;55906;52.278;6.808;2022-12-18T11:53:20;19.95;;;12.27;;
68870;SDS011;55906;52.278;6.808;2022-12-18T11:55:50;25.25;;;12.88;;
68870;SDS011;55906;52.278;6.808;2022-12-18T11:58:45;21.00;;;12.07;;
68870;SDS011;55906;52.278;6.808;2022-12-18T12:01:16;16.77;;;10.75;;
68870;SDS011;55906;52.278;6.808;2022-12-18T12:03:56;16.38;;;10.90;;
68870;SDS011;55906;52.278;6.808;2022-12-18T12:06:41;16.88;;;10.77;;
68870;SDS011;55906;52.278;6.808;2022-12-18T12:09:19;21.17;;;10.45;;
68870;SDS011;55906;52.278;6.808;2022-12-18T12:11:52;15.32;;;10.45;;
68870;SDS011;55906;52.278;6.808;2022-12-18T12:14:33;14.50;;;9.38;;
68870;SDS011;55906;52.278;6.808;2022-12-18T12:17:10;13.53;;;9.53;;
68870;SDS011;55906;52.278;6.808;2022-12-18T12:19:45;19.42;;;12.52;;
68870;SDS011;55906;52.278;6.808;2022-12-18T12:22:20;19.83;;;11.15;;
68870;SDS011;55906;52.278;6.808;2022-12-18T12:24:58;24.90;;;15.40;;
68870;SDS011;55906;52.278;6.808;2022-12-18T12:27:39;21.77;;;12.65;;
68870;SDS011;55906;52.278;6.808;2022-12-18T12:30:17;20.67;;;12.88;;
68870;SDS011;55906;52.278;6.808;2022-12-18T12:32:49;19.45;;;12.07;;
68870;SDS011;55906;52.278;6.808;2022-12-18T12:35:30;14.35;;;10.60;;
68870;SDS011;55906;52.278;6.808;2022-12-18T12:38:07;16.55;;;10.75;;
68870;SDS011;55906;52.278;6.808;2022-12-18T12:40:41;20.15;;;11.25;;
68870;SDS011;55906;52.278;6.808;2022-12-18T12:46:01;17.90;;;11.55;;
68870;SDS011;55906;52.278;6.808;2022-12-18T12:48:38;20.95;;;11.43;;
68870;SDS011;55906;52.278;6.808;2022-12-18T12:51:11;16.47;;;9.80;;
68870;SDS011;55906;52.278;6.808;2022-12-18T12:53:42;15.77;;;9.60;;
68870;SDS011;55906;52.278;6.808;2022-12-18T12:56:11;13.25;;;9.63;;
68870;SDS011;55906;52.278;6.808;2022-12-18T12:58:43;15.05;;;9.10;;
68870;SDS011;55906;52.278;6.808;2022-12-18T13:01:18;13.32;;;9.05;;
68870;SDS011;55906;52.278;6.808;2022-12-18T13:03:56;14.05;;;9.68;;
68870;SDS011;55906;52.278;6.808;2022-12-18T13:06:33;12.98;;;8.52;;
68870;SDS011;55906;52.278;6.808;2022-12-18T13:09:08;13.60;;;8.43;;
68870;SDS011;55906;52.278;6.808;2022-12-18T13:11:37;11.98;;;8.55;;
68870;SDS011;55906;52.278;6.808;2022-12-18T13:14:24;13.38;;;9.23;;
68870;SDS011;55906;52.278;6.808;2022-12-18T13:20:06;14.25;;;8.40;;
68870;SDS011;55906;52.278;6.808;2022-12-18T13:22:37;15.05;;;8.98;;
68870;SDS011;55906;52.278;6.808;2022-12-18T13:28:07;15.10;;;9.88;;
68870;SDS011;55906;52.278;6.808;2022-12-18T13:30:46;15.32;;;10.95;;
68870;SDS011;55906;52.278;6.808;2022-12-18T13:36:13;15.50;;;10.00;;
68870;SDS011;55906;52.278;6.808;2022-12-18T13:39:10;15.20;;;9.82;;
68870;SDS011;55906;52.278;6.808;2022-12-18T13:41:47;19.45;;;11.15;;
68870;SDS011;55906;52.278;6.808;2022-12-18T13:44:23;16.73;;;10.10;;
68870;SDS011;55906;52.278;6.808;2022-12-18T13:46:55;18.98;;;11.07;;
68870;SDS011;55906;52.278;6.808;2022-12-18T13:49:23;20.35;;;11.82;;
68870;SDS011;55906;52.278;6.808;2022-12-18T13:51:52;18.52;;;12.00;;
68870;SDS011;55906;52.278;6.808;2022-12-18T13:54:22;15.30;;;10.48;;
68870;SDS011;55906;52.278;6.808;2022-12-18T13:56:59;17.80;;;10.35;;
68870;SDS011;55906;52.278;6.808;2022-12-18T13:59:32;15.38;;;9.85;;
68870;SDS011;55906;52.278;6.808;2022-12-18T14:02:00;16.70;;;10.47;;
68870;SDS011;55906;52.278;6.808;2022-12-18T14:04:34;15.88;;;9.52;;
68870;SDS011;55906;52.278;6.808;2022-12-18T14:07:02;19.83;;;11.70;;
68870;SDS011;55906;52.278;6.808;2022-12-18T14:09:31;16.57;;;11.50;;
68870;SDS011;55906;52.278;6.808;2022-12-18T14:12:01;15.23;;;10.82;;
68870;SDS011;55906;52.278;6.808;2022-12-18T14:14:48;17.35;;;12.00;;
68870;SDS011;55906;52.278;6.808;2022-12-18T14:17:18;16.25;;;10.32;;
68870;SDS011;55906;52.278;6.808;2022-12-18T14:19:46;15.77;;;10.18;;
68870;SDS011;55906;52.278;6.808;2022-12-18T14:22:17;15.50;;;9.95;;
68870;SDS011;55906;52.278;6.808;2022-12-18T14:24:44;19.60;;;11.93;;
68870;SDS011;55906;52.278;6.808;2022-12-18T14:27:12;13.50;;;10.00;;
68870;SDS011;55906;52.278;6.808;2022-12-18T14:29:45;14.85;;;9.80;;
68870;SDS011;55906;52.278;6.808;2022-12-18T14:32:14;14.88;;;9.95;;
68870;SDS011;55906;52.278;6.808;2022-12-18T14:34:42;15.43;;;9.20;;
68870;SDS011;55906;52.278;6.808;2022-12-18T14:37:09;13.93;;;9.10;;
68870;SDS011;55906;52.278;6.808;2022-12-18T14:39:37;14.98;;;9.95;;
68870;SDS011;55906;52.278;6.808;2022-12-18T14:42:04;13.93;;;10.27;;
68870;SDS011;55906;52.278;6.808;2022-12-18T14:44:31;15.13;;;10.35;;
68870;SDS011;55906;52.278;6.808;2022-12-18T14:46:57;14.73;;;9.38;;
68870;SDS011;55906;52.278;6.808;2022-12-18T14:49:26;14.60;;;10.32;;
68870;SDS011;55906;52.278;6.808;2022-12-18T14:51:56;16.77;;;10.23;;